createdAt,value
2018-02-09T00:01:18.257Z,41.20
2018-02-09T00:03:21.651Z,41.20
2018-02-09T00:05:25.096Z,41.20
2018-02-09T00:07:29.274Z,41.30
2018-02-09T00:09:32.679Z,41.20
2018-02-09T00:11:36.099Z,41.20
2018-02-09T00:13:39.488Z,41.30
2018-02-09T00:15:43.672Z,41.20
2018-02-09T00:17:47.048Z,41.20
2018-02-09T00:19:50.443Z,41.20
2018-02-09T00:21:53.915Z,41.20
2018-02-09T00:23:57.545Z,41.20
2018-02-09T00:26:00.963Z,41.30
2018-02-09T00:28:04.398Z,41.20
2018-02-09T00:30:07.782Z,41.20
2018-02-09T00:32:11.194Z,41.20
2018-02-09T00:34:14.586Z,41.20
2018-02-09T00:36:18.765Z,41.20
2018-02-09T00:38:22.202Z,41.20
2018-02-09T00:40:25.602Z,41.20
2018-02-09T00:42:29.014Z,41.20
2018-02-09T00:44:32.442Z,41.20
2018-02-09T00:46:35.829Z,41.20
2018-02-09T00:48:39.200Z,41.20
2018-02-09T00:50:42.570Z,41.20
2018-02-09T00:52:46.021Z,41.20
2018-02-09T00:54:49.421Z,41.20
2018-02-09T00:56:52.803Z,41.20
2018-02-09T00:58:56.247Z,41.20
2018-02-09T01:00:59.647Z,41.20
2018-02-09T01:03:03.033Z,41.10
2018-02-09T01:05:06.753Z,41.10
2018-02-09T01:07:10.915Z,41.10
2018-02-09T01:09:14.317Z,41.10
2018-02-09T01:11:18.687Z,41.10
2018-02-09T01:13:22.857Z,41.20
2018-02-09T01:15:26.252Z,41.10
2018-02-09T01:17:29.628Z,41.00
2018-02-09T01:19:33.051Z,41.20
2018-02-09T01:21:36.418Z,41.10
2018-02-09T01:23:39.825Z,41.10
2018-02-09T01:25:43.226Z,41.10
2018-02-09T01:27:46.633Z,41.60
2018-02-09T01:29:50.077Z,41.10
2018-02-09T01:31:53.520Z,41.10
2018-02-09T01:33:57.696Z,41.20
2018-02-09T01:36:01.100Z,41.20
2018-02-09T01:38:04.487Z,41.10
2018-02-09T01:40:07.928Z,41.20
2018-02-09T01:42:11.311Z,41.00
2018-02-09T01:44:15.483Z,41.10
2018-02-09T01:46:18.925Z,41.10
2018-02-09T01:48:22.431Z,41.10
2018-02-09T01:50:25.851Z,41.10
2018-02-09T01:52:29.242Z,41.10
2018-02-09T01:54:32.624Z,41.10
2018-02-09T01:56:36.081Z,41.10
2018-02-09T01:58:40.221Z,41.00
2018-02-09T02:00:43.638Z,41.00
2018-02-09T02:02:47.023Z,41.10
2018-02-09T02:04:50.416Z,41.10
2018-02-09T02:06:53.828Z,41.10
2018-02-09T02:08:57.231Z,41.10
2018-02-09T02:11:00.604Z,41.10
2018-02-09T02:13:03.983Z,41.00
2018-02-09T02:15:07.658Z,41.00
2018-02-09T02:17:11.082Z,41.10
2018-02-09T02:19:14.475Z,41.10
2018-02-09T02:21:17.849Z,41.00
2018-02-09T02:23:21.256Z,41.10
2018-02-09T02:25:24.636Z,41.00
2018-02-09T02:27:28.034Z,41.00
2018-02-09T02:29:31.411Z,41.00
2018-02-09T02:31:34.795Z,41.00
2018-02-09T02:33:38.203Z,41.00
2018-02-09T02:35:41.590Z,41.00
2018-02-09T02:37:45.754Z,41.00
2018-02-09T02:39:49.126Z,41.10
2018-02-09T02:41:52.548Z,41.00
2018-02-09T02:43:55.952Z,41.10
2018-02-09T02:46:00.139Z,41.00
2018-02-09T02:48:03.559Z,41.00
2018-02-09T02:50:06.950Z,41.00
2018-02-09T02:52:10.330Z,41.00
2018-02-09T02:54:14.553Z,41.00
2018-02-09T02:56:18.700Z,41.00
2018-02-09T02:58:22.105Z,41.00
2018-02-09T03:00:25.511Z,41.00
2018-02-09T03:02:28.949Z,41.00
2018-02-09T03:04:32.329Z,41.00
2018-02-09T03:06:36.498Z,41.00
2018-02-09T03:08:39.891Z,40.90
2018-02-09T03:10:43.097Z,40.90
2018-02-09T03:12:46.462Z,41.00
2018-02-09T03:14:49.896Z,41.00
2018-02-09T03:16:53.283Z,40.90
2018-02-09T03:18:57.438Z,40.80
2018-02-09T03:21:00.826Z,40.70
2018-02-09T03:23:04.225Z,40.70
2018-02-09T03:25:07.665Z,40.60
2018-02-09T03:27:11.063Z,40.60
2018-02-09T03:29:14.435Z,40.40
2018-02-09T03:31:17.852Z,40.40
2018-02-09T03:33:22.016Z,40.30
2018-02-09T03:35:25.431Z,40.20
2018-02-09T03:37:28.806Z,40.20
2018-02-09T03:39:32.190Z,40.10
2018-02-09T03:41:35.600Z,40.00
2018-02-09T03:43:39.033Z,39.90
2018-02-09T03:45:42.456Z,39.80
2018-02-09T03:47:45.850Z,39.80
2018-02-09T03:49:49.289Z,39.70
2018-02-09T03:51:52.730Z,39.60
2018-02-09T03:53:56.134Z,39.60
2018-02-09T03:55:59.568Z,39.50
2018-02-09T03:58:03.741Z,39.50
2018-02-09T04:00:07.179Z,39.40
2018-02-09T04:02:11.379Z,39.40
2018-02-09T04:04:15.530Z,39.30
2018-02-09T04:06:18.934Z,39.30
2018-02-09T04:08:22.319Z,39.20
2018-02-09T04:10:25.688Z,39.30
2018-02-09T04:12:29.884Z,39.30
2018-02-09T04:14:33.251Z,39.30
2018-02-09T04:16:36.639Z,39.30
2018-02-09T04:18:40.025Z,39.10
2018-02-09T04:20:43.214Z,39.70
2018-02-09T04:22:46.645Z,39.00
2018-02-09T04:24:50.039Z,39.00
2018-02-09T04:26:53.433Z,38.90
2018-02-09T04:28:56.798Z,38.90
2018-02-09T04:31:00.174Z,38.60
2018-02-09T04:33:03.626Z,38.50
2018-02-09T04:35:07.785Z,38.20
2018-02-09T04:37:11.157Z,38.20
2018-02-09T04:39:14.289Z,38.20
2018-02-09T04:41:17.708Z,38.00
2018-02-09T04:43:21.880Z,37.80
2018-02-09T04:45:25.266Z,37.80
2018-02-09T04:47:28.687Z,37.70
2018-02-09T04:49:32.057Z,38.20
2018-02-09T04:51:35.443Z,37.40
2018-02-09T04:53:38.854Z,37.50
2018-02-09T04:55:42.270Z,37.30
2018-02-09T04:57:45.652Z,37.30
2018-02-09T04:59:49.067Z,37.20
2018-02-09T05:01:53.218Z,37.10
2018-02-09T05:03:56.619Z,37.00
2018-02-09T05:06:00.516Z,37.00
2018-02-09T05:08:03.967Z,36.90
2018-02-09T05:10:08.526Z,36.80
2018-02-09T05:12:11.980Z,36.80
2018-02-09T05:14:16.246Z,36.70
2018-02-09T05:16:20.445Z,36.60
2018-02-09T05:18:23.824Z,36.60
2018-02-09T05:20:27.355Z,36.50
2018-02-09T05:22:31.511Z,36.40
2018-02-09T05:24:34.929Z,36.30
2018-02-09T05:26:38.180Z,36.30
2018-02-09T05:28:42.327Z,36.30
2018-02-09T05:30:45.770Z,36.30
2018-02-09T05:32:50.026Z,36.30
2018-02-09T05:34:53.433Z,36.10
2018-02-09T05:36:56.981Z,36.10
2018-02-09T05:39:01.120Z,36.00
2018-02-09T05:41:04.513Z,35.90
2018-02-09T05:43:07.892Z,35.90
2018-02-09T05:45:11.640Z,35.80
2018-02-09T05:47:16.048Z,35.90
2018-02-09T05:49:19.420Z,35.90
2018-02-09T05:51:22.827Z,36.00
2018-02-09T05:53:26.211Z,36.00
2018-02-09T05:55:29.592Z,36.10
2018-02-09T05:57:32.958Z,36.10
2018-02-09T05:59:37.092Z,36.20
2018-02-09T06:01:40.493Z,36.20
2018-02-09T06:03:43.883Z,36.30
2018-02-09T06:05:47.264Z,36.40
2018-02-09T06:07:50.635Z,36.70
2018-02-09T06:09:54.779Z,36.80
2018-02-09T06:11:58.202Z,36.80
2018-02-09T06:14:01.646Z,37.00
2018-02-09T06:16:04.885Z,37.00
2018-02-09T06:18:08.352Z,37.10
2018-02-09T06:20:11.827Z,37.20
2018-02-09T06:22:15.295Z,37.30
2018-02-09T06:24:19.476Z,37.70
2018-02-09T06:26:22.979Z,37.50
2018-02-09T06:28:27.185Z,37.90
2018-02-09T06:30:30.594Z,37.80
2018-02-09T06:32:34.042Z,38.00
2018-02-09T06:34:37.698Z,38.10
2018-02-09T06:36:41.899Z,38.50
2018-02-09T06:38:45.402Z,38.50
2018-02-09T06:40:49.734Z,38.60
2018-02-09T06:42:53.357Z,38.60
2018-02-09T06:44:56.775Z,38.80
2018-02-09T06:47:00.877Z,38.80
2018-02-09T06:49:05.288Z,38.90
2018-02-09T06:51:08.722Z,38.90
2018-02-09T06:53:12.947Z,39.00
2018-02-09T06:55:17.204Z,39.00
2018-02-09T06:57:20.677Z,39.10
2018-02-09T06:59:24.400Z,39.10
2018-02-09T07:01:27.950Z,39.10
2018-02-09T07:03:32.258Z,39.10
2018-02-09T07:05:36.566Z,39.30
2018-02-09T07:07:40.967Z,39.30
2018-02-09T07:09:44.685Z,39.30
2018-02-09T07:11:48.252Z,39.30
2018-02-09T07:13:51.621Z,39.30
2018-02-09T07:15:55.142Z,39.40
2018-02-09T07:17:58.666Z,39.40
2018-02-09T07:20:02.187Z,39.50
2018-02-09T07:22:05.731Z,39.50
2018-02-09T07:24:09.348Z,39.50
2018-02-09T07:26:13.653Z,39.60
2018-02-09T07:28:17.184Z,39.60
2018-02-09T07:30:20.726Z,39.70
2018-02-09T07:32:24.215Z,40.30
2018-02-09T07:34:27.996Z,39.80
2018-02-09T07:36:31.531Z,39.80
2018-02-09T07:38:35.120Z,39.80
2018-02-09T07:40:38.669Z,39.90
2018-02-09T07:42:42.204Z,40.60
2018-02-09T07:44:45.757Z,40.00
2018-02-09T07:46:49.284Z,39.90
2018-02-09T07:48:52.654Z,40.00
2018-02-09T07:50:56.071Z,40.10
2018-02-09T07:52:59.452Z,40.20
2018-02-09T07:55:02.842Z,40.10
2018-02-09T07:57:06.317Z,40.20
2018-02-09T07:59:09.716Z,40.20
2018-02-09T08:01:13.164Z,40.20
2018-02-09T08:03:16.550Z,40.20
2018-02-09T08:05:19.964Z,40.90
2018-02-09T08:07:24.147Z,40.30
2018-02-09T08:09:27.595Z,40.20
2018-02-09T08:11:30.998Z,40.30
2018-02-09T08:13:34.382Z,40.20
2018-02-09T08:15:37.798Z,40.30
2018-02-09T08:17:41.191Z,40.30
2018-02-09T08:19:44.600Z,40.30
2018-02-09T08:21:48.062Z,40.30
2018-02-09T08:23:51.479Z,40.40
2018-02-09T08:25:54.887Z,40.40
2018-02-09T08:27:58.112Z,40.40
2018-02-09T08:30:02.284Z,40.40
2018-02-09T08:32:06.054Z,40.40
2018-02-09T08:34:09.470Z,40.40
2018-02-09T08:36:12.876Z,40.50
2018-02-09T08:38:17.095Z,40.40
2018-02-09T08:40:21.266Z,40.40
2018-02-09T08:42:24.846Z,40.40
2018-02-09T08:44:28.292Z,40.50
2018-02-09T08:46:32.974Z,40.50
2018-02-09T08:48:36.437Z,40.50
2018-02-09T08:50:40.692Z,40.50
2018-02-09T08:52:44.241Z,40.50
2018-02-09T08:54:48.461Z,40.50
2018-02-09T08:56:51.869Z,40.50
2018-02-09T08:58:55.285Z,40.40
2018-02-09T09:00:58.686Z,40.40
2018-02-09T09:03:02.099Z,40.40
2018-02-09T09:05:05.492Z,40.10
2018-02-09T09:07:09.756Z,41.00
2018-02-09T09:09:14.176Z,40.50
2018-02-09T09:11:17.572Z,40.50
2018-02-09T09:13:21.019Z,40.50
2018-02-09T09:15:25.168Z,40.50
2018-02-09T09:17:28.562Z,40.50
2018-02-09T09:19:31.989Z,40.50
2018-02-09T09:21:35.400Z,40.40
2018-02-09T09:23:38.809Z,40.50
2018-02-09T09:25:42.205Z,40.50
2018-02-09T09:27:45.580Z,40.50
2018-02-09T09:29:48.981Z,40.40
2018-02-09T09:31:53.129Z,40.40
2018-02-09T09:33:56.533Z,40.40
2018-02-09T09:35:59.900Z,40.40
2018-02-09T09:38:03.292Z,40.40
2018-02-09T09:40:06.771Z,40.40
2018-02-09T09:42:10.943Z,40.50
2018-02-09T09:44:14.327Z,40.50
2018-02-09T09:46:17.800Z,40.50
2018-02-09T09:48:21.199Z,40.40
2018-02-09T09:50:24.643Z,40.50
2018-02-09T09:52:28.203Z,40.40
2018-02-09T09:54:31.591Z,40.40
2018-02-09T09:56:34.955Z,40.50
2018-02-09T09:58:38.329Z,40.50
2018-02-09T10:00:41.768Z,40.50
2018-02-09T10:02:45.312Z,40.50
2018-02-09T10:04:49.484Z,40.50
2018-02-09T10:06:52.929Z,40.40
2018-02-09T10:08:56.331Z,40.50
2018-02-09T10:10:59.772Z,40.50
2018-02-09T10:13:03.848Z,40.40
2018-02-09T10:15:07.398Z,40.30
2018-02-09T10:17:11.611Z,40.30
2018-02-09T10:19:15.750Z,40.20
2018-02-09T10:21:19.197Z,40.20
2018-02-09T10:23:23.505Z,40.10
2018-02-09T10:25:26.957Z,39.90
2018-02-09T10:27:30.572Z,40.00
2018-02-09T10:29:34.560Z,39.80
2018-02-09T10:31:37.999Z,39.80
2018-02-09T10:33:41.419Z,39.60
2018-02-09T10:35:46.272Z,39.50
2018-02-09T10:37:49.706Z,39.50
2018-02-09T10:39:53.295Z,39.50
2018-02-09T10:41:56.707Z,39.30
2018-02-09T10:44:00.116Z,39.20
2018-02-09T10:46:04.265Z,39.20
2018-02-09T10:48:07.696Z,39.10
2018-02-09T10:50:11.127Z,39.00
2018-02-09T10:52:17.484Z,38.90
2018-02-09T10:54:21.672Z,38.80
2018-02-09T10:56:25.063Z,38.80
2018-02-09T10:58:28.712Z,38.80
2018-02-09T11:00:37.476Z,38.70
2018-02-09T11:02:40.922Z,38.70
2018-02-09T11:04:44.297Z,39.40
2018-02-09T11:06:47.691Z,38.70
2018-02-09T11:08:51.093Z,38.70
2018-02-09T11:10:54.312Z,38.70
2018-02-09T11:12:57.542Z,38.70
2018-02-09T11:15:01.673Z,38.70
2018-02-09T11:17:05.080Z,38.70
2018-02-09T11:19:08.532Z,38.70
2018-02-09T11:21:11.906Z,38.70
2018-02-09T11:23:15.279Z,38.70
2018-02-09T11:25:18.670Z,38.70
2018-02-09T11:27:22.053Z,38.70
2018-02-09T11:29:25.496Z,39.30
2018-02-09T11:31:28.909Z,38.70
2018-02-09T11:33:32.290Z,38.70
2018-02-09T11:35:36.329Z,38.70
2018-02-09T11:37:39.700Z,38.70
2018-02-09T11:39:43.125Z,38.80
2018-02-09T11:41:46.502Z,38.80
2018-02-09T11:43:49.879Z,38.90
2018-02-09T11:45:53.287Z,38.80
2018-02-09T11:47:57.102Z,38.90
2018-02-09T11:50:00.729Z,38.90
2018-02-09T11:52:04.207Z,38.90
2018-02-09T11:54:07.688Z,39.30
2018-02-09T11:56:11.194Z,38.90
2018-02-09T11:58:14.704Z,39.00
2018-02-09T12:00:18.246Z,39.00
2018-02-09T12:02:21.735Z,39.10
2018-02-09T12:04:25.988Z,39.20
2018-02-09T12:06:29.772Z,39.20
2018-02-09T12:08:33.256Z,39.30
2018-02-09T12:10:37.066Z,39.50
2018-02-09T12:12:41.150Z,40.00
2018-02-09T12:14:45.310Z,40.90
2018-02-09T12:16:51.710Z,41.60
2018-02-09T12:18:55.325Z,42.50
2018-02-09T12:20:58.950Z,44.90
2018-02-09T12:23:02.469Z,44.60
2018-02-09T12:25:05.905Z,44.70
2018-02-09T12:27:10.422Z,45.90
2018-02-09T12:29:14.761Z,45.90
2018-02-09T12:31:19.807Z,47.20
2018-02-09T12:33:23.439Z,47.20
2018-02-09T12:35:26.943Z,47.60
2018-02-09T12:37:30.663Z,47.70
2018-02-09T12:39:35.031Z,49.40
2018-02-09T12:41:38.899Z,49.30
2018-02-09T12:43:42.510Z,49.50
2018-02-09T12:45:46.202Z,49.40
2018-02-09T12:47:49.775Z,49.80
2018-02-09T12:49:54.193Z,51.60
2018-02-09T12:51:58.370Z,51.60
2018-02-09T12:54:01.724Z,52.00
2018-02-09T12:56:05.614Z,53.00
2018-02-09T12:58:09.333Z,53.30
2018-02-09T13:00:12.871Z,53.00
2018-02-09T13:02:16.791Z,52.70
2018-02-09T13:04:21.092Z,53.00
2018-02-09T13:06:26.477Z,53.20
2018-02-09T13:08:30.029Z,53.20
2018-02-09T13:10:34.396Z,53.80
2018-02-09T13:12:49.649Z,53.80
2018-02-09T13:14:53.160Z,53.70
2018-02-09T13:16:58.403Z,53.30
2018-02-09T13:19:02.213Z,52.70
2018-02-09T13:21:05.786Z,52.30
2018-02-09T13:23:21.020Z,51.70
2018-02-09T13:25:25.096Z,51.80
2018-02-09T13:27:28.948Z,52.30
2018-02-09T13:29:33.990Z,52.40
2018-02-09T13:31:37.557Z,52.40
2018-02-09T13:33:41.963Z,52.90
2018-02-09T13:35:45.608Z,52.90
2018-02-09T13:37:48.985Z,52.90
2018-02-09T13:39:53.378Z,53.30
2018-02-09T13:41:57.561Z,53.50
2018-02-09T13:44:03.170Z,53.50
2018-02-09T13:46:06.672Z,53.70
2018-02-09T13:48:10.133Z,53.90
2018-02-09T13:50:14.954Z,54.20
2018-02-09T13:52:19.312Z,54.50
2018-02-09T13:54:23.193Z,54.40
2018-02-09T13:56:26.780Z,54.70
2018-02-09T13:58:30.923Z,55.20
2018-02-09T14:00:34.310Z,55.70
2018-02-09T14:02:38.120Z,55.30
2018-02-09T14:04:42.128Z,55.30
2018-02-09T14:06:45.603Z,55.40
2018-02-09T14:08:49.150Z,55.70
2018-02-09T14:10:53.458Z,55.90
2018-02-09T14:12:56.848Z,55.80
2018-02-09T14:15:00.254Z,56.00
2018-02-09T14:17:03.642Z,56.40
2018-02-09T14:19:07.514Z,57.10
2018-02-09T14:21:11.113Z,56.10
2018-02-09T14:23:14.545Z,56.40
2018-02-09T14:25:17.971Z,56.40
2018-02-09T14:27:22.279Z,56.90
2018-02-09T14:29:25.738Z,57.70
2018-02-09T14:31:29.309Z,57.50
2018-02-09T14:33:32.689Z,57.60
2018-02-09T14:35:36.525Z,57.80
2018-02-09T14:37:41.986Z,58.20
2018-02-09T14:39:47.531Z,58.60
2018-02-09T14:41:51.822Z,58.30
2018-02-09T14:43:55.513Z,58.20
2018-02-09T14:46:00.293Z,58.40
2018-02-09T14:48:03.738Z,58.50
2018-02-09T14:50:07.450Z,58.50
2018-02-09T14:52:11.689Z,59.50
2018-02-09T14:54:15.117Z,58.90
2018-02-09T14:56:18.494Z,59.10
2018-02-09T14:58:21.887Z,59.20
2018-02-09T15:00:25.656Z,59.30
2018-02-09T15:02:29.316Z,59.40
2018-02-09T15:04:32.737Z,59.50
2018-02-09T15:06:36.264Z,59.60
2018-02-09T15:08:39.852Z,59.70
2018-02-09T15:10:44.170Z,59.70
2018-02-09T15:12:48.417Z,59.70
2018-02-09T15:14:51.953Z,59.70
2018-02-09T15:16:56.558Z,59.70
2018-02-09T15:19:00.199Z,59.60
2018-02-09T15:21:05.102Z,59.80
2018-02-09T15:23:09.313Z,59.50
2018-02-09T15:25:12.788Z,59.30
2018-02-09T15:27:16.971Z,59.10
2018-02-09T15:29:20.410Z,59.00
2018-02-09T15:31:25.523Z,58.90
2018-02-09T15:33:29.270Z,58.90
2018-02-09T15:35:32.964Z,59.00
2018-02-09T15:37:36.854Z,59.00
2018-02-09T15:39:40.531Z,58.80
2018-02-09T15:41:43.984Z,58.90
2018-02-09T15:43:47.400Z,59.00
2018-02-09T15:45:50.811Z,58.90
2018-02-09T15:47:54.190Z,58.90
2018-02-09T15:49:57.596Z,58.80
2018-02-09T15:52:01.032Z,58.90
2018-02-09T15:54:04.421Z,58.80
2018-02-09T15:56:08.995Z,58.70
2018-02-09T15:58:12.423Z,58.70
2018-02-09T16:00:16.609Z,58.80
2018-02-09T16:02:20.063Z,58.80
2018-02-09T16:04:23.513Z,58.70
2018-02-09T16:06:26.924Z,58.60
2018-02-09T16:08:30.340Z,58.70
2018-02-09T16:10:33.767Z,58.60
2018-02-09T16:12:37.186Z,58.60
2018-02-09T16:14:41.691Z,58.70
2018-02-09T16:16:46.450Z,58.70
2018-02-09T16:18:50.449Z,58.60
2018-02-09T16:20:53.877Z,58.70
2018-02-09T16:22:57.302Z,58.70
2018-02-09T16:25:00.797Z,58.50
2018-02-09T16:27:04.201Z,58.10
2018-02-09T16:29:08.375Z,58.10
2018-02-09T16:31:11.749Z,58.10
2018-02-09T16:33:15.313Z,58.00
2018-02-09T16:35:19.497Z,58.30
2018-02-09T16:37:22.907Z,58.20
2018-02-09T16:39:27.109Z,58.20
2018-02-09T16:41:30.574Z,58.00
2018-02-09T16:43:34.023Z,58.10
2018-02-09T16:45:37.493Z,58.10
2018-02-09T16:47:40.879Z,57.90
2018-02-09T16:49:44.477Z,58.00
2018-02-09T16:51:48.025Z,57.90
2018-02-09T16:53:51.598Z,58.10
2018-02-09T16:55:55.732Z,58.00
2018-02-09T16:58:00.373Z,58.40
2018-02-09T17:00:04.126Z,58.00
2018-02-09T17:02:08.018Z,58.00
2018-02-09T17:04:12.435Z,57.90
2018-02-09T17:06:16.602Z,57.60
2018-02-09T17:08:20.773Z,57.60
2018-02-09T17:10:24.604Z,57.00
2018-02-09T17:12:28.440Z,57.00
2018-02-09T17:14:32.432Z,56.90
2018-02-09T17:16:37.005Z,57.20
2018-02-09T17:18:40.407Z,57.50
2018-02-09T17:20:43.807Z,57.60
2018-02-09T17:22:47.195Z,57.70
2018-02-09T17:24:52.286Z,57.70
2018-02-09T17:26:56.716Z,57.90
2018-02-09T17:29:00.232Z,57.90
2018-02-09T17:31:03.812Z,58.00
2018-02-09T17:33:07.342Z,58.10
2018-02-09T17:35:11.095Z,58.00
2018-02-09T17:37:14.698Z,58.10
2018-02-09T17:39:18.354Z,58.30
2018-02-09T17:41:21.949Z,58.20
2018-02-09T17:43:25.331Z,58.10
2018-02-09T17:45:29.017Z,58.20
2018-02-09T17:47:32.661Z,58.30
2018-02-09T17:49:36.192Z,58.20
2018-02-09T17:51:39.801Z,58.20
2018-02-09T17:53:43.381Z,58.20
2018-02-09T17:55:46.938Z,58.40
2018-02-09T17:57:50.733Z,58.50
2018-02-09T17:59:55.258Z,58.70
2018-02-09T18:01:58.755Z,58.40
2018-02-09T18:04:02.427Z,58.60
2018-02-09T18:06:06.958Z,58.60
2018-02-09T18:08:10.527Z,58.60
2018-02-09T18:10:14.274Z,58.60
2018-02-09T18:12:18.939Z,58.60
2018-02-09T18:14:22.486Z,58.60
2018-02-09T18:16:25.758Z,58.60
2018-02-09T18:18:29.265Z,58.60
2018-02-09T18:20:32.759Z,58.60
2018-02-09T18:22:36.485Z,58.60
2018-02-09T18:24:40.234Z,58.70
2018-02-09T18:26:43.857Z,59.20
2018-02-09T18:28:47.290Z,58.70
2018-02-09T18:30:50.661Z,58.60
2018-02-09T18:32:54.082Z,59.30
2018-02-09T18:34:57.450Z,58.80
2018-02-09T18:37:00.825Z,58.70
2018-02-09T18:39:03.986Z,58.70
2018-02-09T18:41:07.401Z,58.50
2018-02-09T18:43:10.825Z,58.40
2018-02-09T18:45:14.282Z,58.40
2018-02-09T18:47:17.668Z,58.40
2018-02-09T18:49:21.182Z,58.60
2018-02-09T18:51:25.394Z,58.60
2018-02-09T18:53:28.819Z,58.60
2018-02-09T18:55:32.226Z,58.50
2018-02-09T18:57:36.352Z,58.60
2018-02-09T18:59:39.773Z,58.50
2018-02-09T19:01:43.145Z,58.60
2018-02-09T19:03:46.549Z,58.50
2018-02-09T19:05:49.920Z,58.70
2018-02-09T19:07:53.338Z,58.60
2018-02-09T19:09:56.786Z,58.70
2018-02-09T19:12:00.950Z,58.60
2018-02-09T19:14:04.359Z,58.60
2018-02-09T19:16:07.772Z,58.60
2018-02-09T19:18:11.945Z,58.70
2018-02-09T19:20:15.376Z,58.70
2018-02-09T19:22:19.946Z,58.70
2018-02-09T19:24:23.421Z,58.70
2018-02-09T19:26:26.815Z,58.50
2018-02-09T19:28:30.197Z,58.60
2018-02-09T19:30:34.404Z,58.70
2018-02-09T19:32:38.590Z,58.60
2018-02-09T19:34:42.006Z,58.60
2018-02-09T19:36:45.388Z,58.40
2018-02-09T19:38:48.763Z,58.10
2018-02-09T19:40:52.141Z,58.10
2018-02-09T19:42:55.504Z,57.90
2018-02-09T19:44:58.926Z,58.60
2018-02-09T19:47:02.369Z,57.60
2018-02-09T19:49:06.523Z,57.90
2018-02-09T19:51:10.143Z,57.30
2018-02-09T19:53:13.561Z,57.30
2018-02-09T19:55:17.742Z,57.70
2018-02-09T19:57:21.156Z,57.70
2018-02-09T19:59:25.312Z,56.40
2018-02-09T20:01:28.732Z,56.40
2018-02-09T20:03:32.139Z,55.10
2018-02-09T20:05:35.575Z,54.20
2018-02-09T20:07:40.404Z,54.00
2018-02-09T20:09:44.385Z,53.80
2018-02-09T20:11:48.914Z,55.30
2018-02-09T20:13:52.659Z,55.30
2018-02-09T20:15:57.441Z,55.70
2018-02-09T20:18:00.650Z,56.00
2018-02-09T20:20:04.136Z,56.20
2018-02-09T20:22:09.893Z,56.40
2018-02-09T20:24:13.261Z,56.60
2018-02-09T20:26:17.493Z,56.80
2018-02-09T20:28:21.071Z,56.80
2018-02-09T20:30:24.465Z,56.80
2018-02-09T20:32:27.825Z,57.00
2018-02-09T20:34:31.225Z,56.90
2018-02-09T20:36:34.667Z,57.00
2018-02-09T20:38:38.060Z,57.00
2018-02-09T20:40:41.422Z,57.00
2018-02-09T20:42:44.955Z,57.00
2018-02-09T20:44:48.400Z,57.00
2018-02-09T20:46:52.584Z,57.20
2018-02-09T20:48:55.938Z,57.20
2018-02-09T20:50:59.317Z,57.20
2018-02-09T20:53:02.679Z,57.10
2018-02-09T20:55:06.800Z,57.20
2018-02-09T20:57:11.002Z,57.30
2018-02-09T20:59:15.168Z,57.50
2018-02-09T21:01:20.107Z,57.40
2018-02-09T21:03:24.453Z,57.40
2018-02-09T21:05:28.069Z,57.50
2018-02-09T21:07:31.760Z,57.50
2018-02-09T21:09:35.124Z,57.50
2018-02-09T21:11:38.880Z,57.50
2018-02-09T21:13:42.266Z,57.50
2018-02-09T21:15:45.638Z,57.60
2018-02-09T21:17:49.984Z,57.70
2018-02-09T21:19:53.509Z,57.60
2018-02-09T21:21:56.993Z,57.80
2018-02-09T21:24:00.380Z,57.80
2018-02-09T21:26:03.630Z,58.00
2018-02-09T21:28:07.809Z,58.10
2018-02-09T21:30:11.202Z,58.00
2018-02-09T21:32:14.905Z,58.10
2018-02-09T21:34:18.385Z,58.30
2018-02-09T21:36:22.645Z,58.50
2018-02-09T21:38:26.033Z,58.50
2018-02-09T21:40:30.214Z,58.70
2018-02-09T21:42:33.896Z,58.60
2018-02-09T21:44:37.395Z,58.80
2018-02-09T21:46:40.904Z,58.80
2018-02-09T21:48:44.755Z,58.80
2018-02-09T21:50:48.164Z,58.90
2018-02-09T21:52:52.039Z,59.00
2018-02-09T21:54:56.921Z,59.00
2018-02-09T21:57:00.576Z,59.20
2018-02-09T21:59:04.005Z,59.20
2018-02-09T22:01:07.387Z,59.30
2018-02-09T22:03:10.757Z,59.30
2018-02-09T22:05:14.210Z,59.40
2018-02-09T22:07:18.100Z,59.50
2018-02-09T22:09:21.551Z,59.50
2018-02-09T22:11:24.952Z,59.60
2018-02-09T22:13:29.792Z,59.70
2018-02-09T22:15:33.233Z,59.70
2018-02-09T22:17:37.480Z,60.00
2018-02-09T22:19:41.795Z,60.00
2018-02-09T22:21:45.505Z,60.00
2018-02-09T22:23:49.809Z,60.10
2018-02-09T22:25:53.566Z,60.10
2018-02-09T22:27:58.898Z,60.20
2018-02-09T22:30:02.654Z,60.30
2018-02-09T22:32:06.015Z,60.30
2018-02-09T22:34:10.762Z,60.30
2018-02-09T22:36:14.904Z,60.30
2018-02-09T22:38:18.320Z,60.40
2018-02-09T22:40:22.506Z,60.40
2018-02-09T22:42:25.985Z,60.40
2018-02-09T22:44:29.360Z,60.50
2018-02-09T22:46:33.330Z,60.70
2018-02-09T22:48:37.576Z,60.60
2018-02-09T22:50:42.206Z,60.60
2018-02-09T22:52:45.664Z,60.60
2018-02-09T22:54:49.843Z,60.80
2018-02-09T22:56:53.283Z,60.70
2018-02-09T22:58:56.676Z,60.80
2018-02-09T23:00:59.706Z,60.90
2018-02-09T23:03:04.016Z,60.80
2018-02-09T23:05:07.421Z,60.80
2018-02-09T23:07:10.881Z,60.90
2018-02-09T23:09:14.552Z,60.90
2018-02-09T23:11:19.174Z,61.10
2018-02-09T23:13:22.542Z,61.20
2018-02-09T23:15:26.854Z,61.30
2018-02-09T23:17:30.229Z,61.20
2018-02-09T23:19:33.667Z,61.30
2018-02-09T23:21:37.066Z,61.50
2018-02-09T23:23:40.524Z,61.60
2018-02-09T23:25:44.689Z,61.60
2018-02-09T23:27:48.133Z,61.50
2018-02-09T23:29:51.622Z,61.60
2018-02-09T23:31:55.823Z,61.80
2018-02-09T23:33:59.192Z,61.70
2018-02-09T23:36:02.579Z,61.60
2018-02-09T23:38:06.001Z,61.70
2018-02-09T23:40:09.490Z,61.70
2018-02-09T23:42:12.962Z,61.80
2018-02-09T23:44:16.335Z,61.80
2018-02-09T23:46:19.711Z,61.80
2018-02-09T23:48:23.392Z,61.70
2018-02-09T23:50:27.577Z,61.60
2018-02-09T23:52:30.957Z,61.60
2018-02-09T23:54:34.610Z,61.70
2018-02-09T23:56:38.337Z,61.50
2018-02-09T23:58:41.776Z,61.20
